createdAt,value
2022-10-26T12:16:10.148Z,29408.00
2022-10-26T12:17:10.206Z,17984.00
2022-10-26T12:18:55.005Z,23072.00
2022-10-26T12:19:40.743Z,22688.00
2022-10-26T12:20:40.726Z,13964.00
2022-10-26T12:22:44.639Z,20192.00
2022-10-26T12:23:51.519Z,18848.00
2022-10-26T12:32:30.918Z,15136.00
2022-10-26T12:33:30.892Z,13172.00
2022-10-26T13:09:06.229Z,13732.00
2022-10-26T13:10:06.206Z,12976.00
2022-10-26T13:11:06.190Z,12724.00
2022-10-26T13:12:06.181Z,13188.00
2022-10-26T13:13:06.162Z,13500.00
2022-10-26T13:14:06.139Z,13784.00
2022-10-26T13:15:06.122Z,14192.00
2022-10-26T13:16:06.122Z,15520.00
2022-10-26T13:17:06.104Z,15872.00
2022-10-26T13:18:06.102Z,17184.00
2022-10-26T13:19:06.078Z,17120.00
2022-10-26T13:20:06.054Z,17024.00
2022-10-26T13:21:06.040Z,19648.00
2022-10-26T13:22:06.030Z,20832.00
2022-10-26T13:23:06.027Z,16864.00
2022-10-26T13:24:06.048Z,18624.00
2022-10-26T13:25:05.999Z,19296.00
2022-10-26T13:26:05.988Z,20288.00
2022-10-26T13:27:05.966Z,22560.00
2022-10-26T13:28:05.968Z,20672.00
2022-10-26T13:29:05.935Z,20768.00
2022-10-26T13:30:05.925Z,18656.00
2022-10-26T13:31:05.910Z,14036.00
2022-10-26T13:32:05.896Z,12476.00
2022-10-26T13:33:05.907Z,11236.00
2022-10-26T13:34:05.921Z,10152.00
2022-10-26T13:35:05.861Z,9848.00
2022-10-26T13:36:05.857Z,9448.00
2022-10-26T13:37:05.848Z,9308.00
2022-10-26T13:38:05.842Z,9168.00
2022-10-26T13:39:05.818Z,9152.00
2022-10-26T13:40:05.824Z,8988.00
2022-10-26T13:41:05.808Z,9000.00
2022-10-26T13:42:05.795Z,9176.00
2022-10-26T13:43:05.806Z,9404.00
2022-10-26T13:44:05.769Z,9360.00
2022-10-26T13:45:05.756Z,9808.00
2022-10-26T13:46:05.742Z,10296.00
2022-10-26T13:47:05.737Z,10764.00
2022-10-26T13:48:05.735Z,11308.00
2022-10-26T13:49:05.730Z,12732.00
2022-10-26T13:50:05.686Z,15232.00
2022-10-26T13:51:05.673Z,16640.00
2022-10-26T13:53:41.119Z,16352.00
2022-10-26T13:55:22.393Z,20448.00
2022-10-26T13:56:22.382Z,20800.00
2022-10-26T13:57:22.389Z,19072.00
2022-10-26T13:58:22.363Z,17376.00
2022-10-26T13:59:22.375Z,17344.00
2022-10-26T14:00:22.330Z,11212.00
2022-10-26T14:02:25.913Z,16128.00
2022-10-26T14:03:25.885Z,14720.00
2022-10-26T14:04:25.865Z,10884.00
2022-10-26T14:05:25.860Z,9408.00
2022-10-26T14:06:25.837Z,8896.00
